sensor_id;sensor_type;location;lat;lon;timestamp;temperature;humidity
8882;DHT22;4477;48.736;9.176;2023-04-24T13:09:34;11.80;99.90
8882;DHT22;4477;48.736;9.176;2023-04-24T13:12:02;9.40;82.60
8882;DHT22;4477;48.736;9.176;2023-04-24T13:14:30;9.30;83.50
8882;DHT22;4477;48.736;9.176;2023-04-24T13:19:24;9.40;86.60
8882;DHT22;4477;48.736;9.176;2023-04-24T13:21:52;9.10;91.30
8882;DHT22;4477;48.736;9.176;2023-04-24T13:24:20;9.40;93.10
8882;DHT22;4477;48.736;9.176;2023-04-24T13:26:46;9.90;91.20
8882;DHT22;4477;48.736;9.176;2023-04-24T13:29:13;10.70;90.30
8882;DHT22;4477;48.736;9.176;2023-04-24T13:34:08;11.90;86.10
8882;DHT22;4477;48.736;9.176;2023-04-24T13:36:36;12.50;80.20
8882;DHT22;4477;48.736;9.176;2023-04-24T13:39:03;12.20;80.80
8882;DHT22;4477;48.736;9.176;2023-04-24T13:41:33;11.30;77.10
8882;DHT22;4477;48.736;9.176;2023-04-24T13:44:00;10.50;80.30
8882;DHT22;4477;48.736;9.176;2023-04-24T13:46:27;10.00;82.80
8882;DHT22;4477;48.736;9.176;2023-04-24T13:48:56;9.80;86.30
8882;DHT22;4477;48.736;9.176;2023-04-24T13:51:23;9.60;90.00
8882;DHT22;4477;48.736;9.176;2023-04-24T13:53:52;9.60;91.40
8882;DHT22;4477;48.736;9.176;2023-04-24T13:56:19;9.50;92.70
8882;DHT22;4477;48.736;9.176;2023-04-24T13:58:46;9.30;94.10
8882;DHT22;4477;48.736;9.176;2023-04-24T14:01:13;9.10;97.20
8882;DHT22;4477;48.736;9.176;2023-04-24T14:03:41;9.10;99.70
8882;DHT22;4477;48.736;9.176;2023-04-24T14:06:10;10.30;99.90
8882;DHT22;4477;48.736;9.176;2023-04-24T14:30:45;12.80;95.70
8882;DHT22;4477;48.736;9.176;2023-04-24T14:33:12;8.60;99.90
8882;DHT22;4477;48.736;9.176;2023-04-24T14:35:39;8.40;99.90
8882;DHT22;4477;48.736;9.176;2023-04-24T14:38:07;8.90;99.90
8882;DHT22;4477;48.736;9.176;2023-04-24T14:40:35;10.80;99.90
8882;DHT22;4477;48.736;9.176;2023-04-24T16:14:12;12.00;91.40
8882;DHT22;4477;48.736;9.176;2023-04-24T17:54:59;13.60;78.20
8882;DHT22;4477;48.736;9.176;2023-04-24T17:57:26;8.40;90.90
8882;DHT22;4477;48.736;9.176;2023-04-24T17:59:53;8.40;90.80
8882;DHT22;4477;48.736;9.176;2023-04-24T18:02:20;8.30;91.30
8882;DHT22;4477;48.736;9.176;2023-04-24T18:04:47;8.40;91.40
8882;DHT22;4477;48.736;9.176;2023-04-24T18:07:15;8.40;92.00
8882;DHT22;4477;48.736;9.176;2023-04-24T18:09:42;8.30;91.80
8882;DHT22;4477;48.736;9.176;2023-04-24T18:12:10;8.30;91.80
8882;DHT22;4477;48.736;9.176;2023-04-24T18:14:37;8.30;91.50
8882;DHT22;4477;48.736;9.176;2023-04-24T18:17:04;8.40;91.10
8882;DHT22;4477;48.736;9.176;2023-04-24T18:19:31;8.50;90.40
8882;DHT22;4477;48.736;9.176;2023-04-24T18:21:57;8.50;90.10
8882;DHT22;4477;48.736;9.176;2023-04-24T18:24:26;8.50;90.20
8882;DHT22;4477;48.736;9.176;2023-04-24T18:26:52;8.50;90.40
8882;DHT22;4477;48.736;9.176;2023-04-24T18:29:19;8.40;90.60
8882;DHT22;4477;48.736;9.176;2023-04-24T18:31:47;8.40;90.00
8882;DHT22;4477;48.736;9.176;2023-04-24T18:34:14;8.40;90.20
8882;DHT22;4477;48.736;9.176;2023-04-24T18:44:03;8.20;90.90
8882;DHT22;4477;48.736;9.176;2023-04-24T18:46:30;7.60;92.00
8882;DHT22;4477;48.736;9.176;2023-04-24T18:49:02;7.60;92.60
8882;DHT22;4477;48.736;9.176;2023-04-24T18:51:29;7.50;92.70
8882;DHT22;4477;48.736;9.176;2023-04-24T18:53:56;7.50;93.10
